Time;durP1;ratioP1;P1;durP2;ratioP2;P2;SDS_P1;SDS_P2;PMS_P1;PMS_P2;Temp;Humidity;BMP_temperature;BMP_pressure;BME280_temperature;BME280_humidity;BME280_pressure;Samples;Min_cycle;Max_cycle;Signal;HPM_P1;HPM_P2
2023/01/13 00:01:28;;;;;;;6.00;1.57;;;27.30;54.70;;;;;;5052086;28;20211;-72
2023/01/13 00:03:56;;;;;;;6.97;1.77;;;27.30;54.70;;;;;;5052850;28;20176;-73
2023/01/13 00:06:24;;;;;;;7.80;1.70;;;27.40;54.60;;;;;;5052784;28;20176;-71
2023/01/13 00:08:53;;;;;;;10.67;1.90;;;27.00;54.90;;;;;;5052790;28;20168;-73
2023/01/13 00:11:21;;;;;;;5.73;2.17;;;27.20;54.40;;;;;;5051420;28;20234;-74
2023/01/13 00:13:48;;;;;;;8.50;1.57;;;27.20;54.50;;;;;;5049123;28;20187;-71
2023/01/13 00:16:17;;;;;;;64.53;5.40;;;27.10;55.70;;;;;;5064389;28;20213;-71
2023/01/13 00:18:46;;;;;;;11.17;2.50;;;27.00;56.00;;;;;;5055347;28;20176;-71
2023/01/13 00:21:17;;;;;;;8.33;2.10;;;27.10;56.40;;;;;;5055222;28;20175;-71
2023/01/13 00:23:44;;;;;;;6.73;1.73;;;27.60;55.60;;;;;;5050143;28;20179;-72
2023/01/13 00:26:15;;;;;;;2.70;1.20;;;27.20;56.20;;;;;;5050571;28;20596;-74
2023/01/13 00:28:43;;;;;;;6.27;1.40;;;27.30;56.10;;;;;;5052408;28;20229;-73
2023/01/13 00:31:18;;;;;;;7.27;1.57;;;27.00;56.40;;;;;;5052055;28;20203;-73
2023/01/13 00:33:50;;;;;;;4.03;1.43;;;27.30;55.50;;;;;;5067178;28;20239;-73
2023/01/13 00:36:19;;;;;;;5.73;1.57;;;27.40;55.60;;;;;;5051330;28;20242;-73
2023/01/13 00:38:47;;;;;;;5.40;1.50;;;27.40;55.30;;;;;;5050073;28;20179;-73
2023/01/13 00:41:17;;;;;;;7.27;1.60;;;27.00;55.40;;;;;;5050622;28;20556;-72
2023/01/13 00:43:45;;;;;;;4.33;1.30;;;26.80;57.00;;;;;;5052152;28;20222;-73
2023/01/13 00:46:14;;;;;;;7.97;1.33;;;26.80;56.40;;;;;;5051512;28;20697;-72
2023/01/13 00:48:42;;;;;;;6.40;1.60;;;26.80;56.60;;;;;;5063020;28;20500;-73
2023/01/13 00:51:19;;;;;;;7.17;2.30;;;26.80;56.50;;;;;;5050260;28;20277;-71
2023/01/13 00:53:49;;;;;;;5.30;2.13;;;27.00;56.10;;;;;;5057914;28;20179;-72
2023/01/13 00:56:22;;;;;;;7.10;1.77;;;27.00;56.40;;;;;;5040667;28;20226;-72
2023/01/13 00:58:50;;;;;;;4.90;1.73;;;27.10;56.10;;;;;;5050405;28;20192;-74
2023/01/13 01:01:21;;;;;;;5.70;1.60;;;27.60;55.80;;;;;;5059524;28;20267;-72
2023/01/13 01:03:52;;;;;;;7.30;3.20;;;27.40;56.20;;;;;;5050837;28;20180;-72
2023/01/13 01:06:22;;;;;;;8.73;5.57;;;27.10;56.40;;;;;;5060147;28;20183;-73
2023/01/13 01:08:51;;;;;;;10.40;3.30;;;27.10;57.40;;;;;;5049879;28;20255;-75
2023/01/13 01:11:21;;;;;;;6.27;1.63;;;26.90;57.40;;;;;;5056640;28;20171;-75
2023/01/13 01:13:51;;;;;;;5.97;1.60;;;26.70;58.10;;;;;;5050661;28;20195;-73
2023/01/13 01:16:20;;;;;;;6.20;1.50;;;26.70;58.40;;;;;;5050898;28;20224;-72
2023/01/13 01:18:49;;;;;;;5.10;1.30;;;26.60;57.80;;;;;;5050711;28;20172;-74
2023/01/13 01:21:17;;;;;;;5.43;1.43;;;27.10;57.40;;;;;;5030522;28;20169;-71
2023/01/13 01:23:45;;;;;;;4.03;1.10;;;27.40;56.50;;;;;;5042670;28;20164;-71
2023/01/13 01:26:16;;;;;;;4.07;1.50;;;27.50;55.60;;;;;;5051580;28;20180;-71
2023/01/13 01:28:44;;;;;;;5.07;1.40;;;27.30;56.10;;;;;;5054199;28;20261;-72
2023/01/13 01:31:16;;;;;;;4.10;1.27;;;27.60;56.90;;;;;;5051376;28;20556;-72
2023/01/13 01:33:46;;;;;;;7.80;1.30;;;27.60;55.00;;;;;;5054117;28;20227;-72
2023/01/13 01:36:15;;;;;;;3.40;1.67;;;27.70;54.60;;;;;;5045371;28;20345;-72
2023/01/13 01:38:43;;;;;;;3.70;1.40;;;27.80;54.10;;;;;;5052842;28;20176;-72
2023/01/13 01:41:19;;;;;;;4.33;1.40;;;27.80;55.30;;;;;;5055367;28;20233;-72
2023/01/13 01:44:06;;;;;;;5.97;1.37;;;27.90;55.30;;;;;;5054240;28;20183;-72
2023/01/13 01:46:42;;;;;;;3.60;1.40;;;28.00;54.50;;;;;;5055818;28;20657;-71
2023/01/13 01:49:15;;;;;;;2.83;1.30;;;28.00;53.70;;;;;;5054871;28;20259;-72
2023/01/13 01:51:47;;;;;;;4.40;1.33;;;28.20;53.60;;;;;;5039027;28;20257;-74
2023/01/13 01:54:21;;;;;;;3.80;1.50;;;28.20;52.30;;;;;;5053226;28;20203;-73
2023/01/13 01:56:49;;;;;;;6.03;1.93;;;28.10;54.60;;;;;;5048702;28;20723;-73
2023/01/13 01:59:17;;;;;;;8.37;1.90;;;28.30;53.50;;;;;;5051567;28;20233;-72
2023/01/13 02:01:45;;;;;;;8.67;1.60;;;28.30;53.80;;;;;;5055010;28;20176;-72
2023/01/13 02:04:20;;;;;;;6.57;2.00;;;28.30;53.30;;;;;;5055465;28;20180;-72
2023/01/13 02:06:48;;;;;;;4.47;1.30;;;28.60;53.20;;;;;;5055247;28;20270;-74
2023/01/13 02:09:16;;;;;;;2.70;1.27;;;28.70;52.80;;;;;;5054371;28;20190;-71
2023/01/13 02:14:29;;;;;;;9.33;1.80;;;28.70;54.10;;;;;;5035469;28;20202;-72
2023/01/13 02:17:20;;;;;;;5.70;1.73;;;29.00;53.50;;;;;;5042310;28;20192;-72
2023/01/13 02:20:18;;;;;;;4.90;1.37;;;28.90;53.90;;;;;;5055236;28;20654;-73
2023/01/13 02:26:03;;;;;;;4.17;1.50;;;29.40;53.80;;;;;;5040219;28;20187;-72
2023/01/13 02:31:49;;;;;;;5.33;1.60;;;29.80;52.10;;;;;;5035086;28;20214;-73
2023/01/13 02:34:42;;;;;;;6.47;1.40;;;29.30;53.20;;;;;;5049238;28;20184;-71
2023/01/13 02:37:22;;;;;;;4.33;1.20;;;29.10;53.40;;;;;;5054058;28;20179;-74
2023/01/13 02:40:25;;;;;;;6.63;1.57;;;29.20;54.20;;;;;;5054541;28;20183;-72
2023/01/13 02:46:44;;;;;;;5.87;1.50;;;29.30;54.60;;;;;;5042144;28;20270;-72
2023/01/13 02:49:28;;;;;;;6.20;1.97;;;29.00;55.20;;;;;;5052451;28;20180;-71
2023/01/13 02:52:06;;;;;;;6.20;2.20;;;28.80;55.50;;;;;;5054086;28;20203;-71
2023/01/13 02:54:37;;;;;;;3.37;1.63;;;28.70;56.10;;;;;;5052546;28;20265;-70
2023/01/13 02:57:07;;;;;;;6.57;1.77;;;28.50;57.40;;;;;;5054005;28;20229;-72
2023/01/13 02:59:36;;;;;;;6.80;1.60;;;28.70;56.60;;;;;;5054088;28;20179;-72
2023/01/13 03:02:05;;;;;;;11.47;1.57;;;28.30;56.70;;;;;;5053934;28;20198;-70
2023/01/13 03:04:52;;;;;;;10.23;2.20;;;28.40;57.00;;;;;;5054024;28;20191;-72
2023/01/13 03:07:41;;;;;;;5.83;1.63;;;28.20;57.20;;;;;;5053545;28;20186;-71
2023/01/13 03:10:29;;;;;;;3.60;1.40;;;28.40;57.00;;;;;;5049742;28;20181;-72
2023/01/13 03:13:21;;;;;;;5.73;1.53;;;28.40;56.20;;;;;;5035888;28;20181;-72
2023/01/13 03:16:28;;;;;;;2.67;1.13;;;28.30;56.20;;;;;;5053704;28;20564;-72
2023/01/13 03:19:10;;;;;;;5.40;1.50;;;28.00;56.90;;;;;;5056134;28;20184;-71
2023/01/13 03:22:03;;;;;;;6.03;1.73;;;28.10;57.80;;;;;;5070051;28;20233;-73
2023/01/13 03:24:42;;;;;;;8.87;1.50;;;28.10;58.30;;;;;;5061567;28;20511;-73
2023/01/13 03:27:26;;;;;;;5.67;1.27;;;28.10;57.70;;;;;;5058442;28;20199;-71
2023/01/13 03:29:56;;;;;;;5.77;1.30;;;28.00;57.60;;;;;;5053494;28;20172;-72
2023/01/13 03:32:29;;;;;;;5.70;1.37;;;27.90;58.00;;;;;;5049228;28;20183;-71
2023/01/13 03:35:04;;;;;;;8.60;1.80;;;27.90;57.80;;;;;;5034636;28;20695;-72
2023/01/13 03:37:37;;;;;;;6.47;1.67;;;27.80;57.80;;;;;;5052630;28;20178;-72
2023/01/13 03:40:10;;;;;;;6.60;1.57;;;27.90;58.50;;;;;;5053249;28;20183;-73
2023/01/13 03:42:39;;;;;;;7.57;1.50;;;28.00;58.20;;;;;;5052534;28;20176;-73
2023/01/13 03:45:11;;;;;;;8.10;1.33;;;28.20;57.80;;;;;;5053187;28;20186;-71
2023/01/13 03:47:52;;;;;;;5.83;1.30;;;28.20;56.80;;;;;;5053209;28;20214;-71
2023/01/13 03:50:32;;;;;;;6.30;1.40;;;28.60;56.80;;;;;;5052508;28;20702;-72
2023/01/13 03:53:09;;;;;;;3.57;1.20;;;29.00;55.30;;;;;;5052986;28;20630;-73
2023/01/13 03:55:44;;;;;;;6.47;1.20;;;29.00;54.50;;;;;;5051077;28;20214;-71
2023/01/13 03:58:20;;;;;;;4.87;1.40;;;29.60;53.60;;;;;;5062732;28;20233;-71
2023/01/13 04:00:54;;;;;;;7.82;1.40;;;29.30;54.20;;;;;;5051115;28;20642;-73
2023/01/13 04:03:46;;;;;;;6.10;1.53;;;29.00;54.10;;;;;;5052202;28;20179;-72
2023/01/13 04:06:31;;;;;;;6.32;1.35;;;29.30;54.20;;;;;;5052713;28;20172;-76
2023/01/13 04:09:14;;;;;;;3.73;1.30;;;28.90;54.80;;;;;;5052772;28;20168;-73
2023/01/13 04:11:51;;;;;;;4.27;1.30;;;28.90;55.10;;;;;;5051925;28;21580;-71
2023/01/13 04:14:20;;;;;;;3.77;1.50;;;28.80;55.10;;;;;;5052847;28;20629;-74
2023/01/13 04:16:49;;;;;;;4.93;1.27;;;28.50;55.70;;;;;;5052592;28;20199;-72
2023/01/13 04:19:16;;;;;;;4.03;1.30;;;28.10;56.40;;;;;;5052707;28;20222;-72
2023/01/13 04:21:44;;;;;;;4.80;1.50;;;28.10;57.00;;;;;;5051126;28;20180;-72
2023/01/13 04:24:11;;;;;;;6.00;1.90;;;28.30;56.90;;;;;;5050878;28;20175;-73
2023/01/13 04:26:38;;;;;;;5.73;1.60;;;28.00;57.70;;;;;;5051185;28;20170;-71
2023/01/13 04:29:06;;;;;;;3.13;1.10;;;28.10;57.40;;;;;;5050633;28;20188;-70
2023/01/13 04:31:33;;;;;;;9.63;1.53;;;27.60;58.90;;;;;;5052578;28;20563;-72
2023/01/13 04:34:01;;;;;;;6.30;1.50;;;27.60;59.30;;;;;;5052443;28;20271;-70
2023/01/13 04:36:28;;;;;;;9.43;1.87;;;27.70;59.00;;;;;;5052355;28;20195;-71
2023/01/13 04:38:55;;;;;;;5.13;1.23;;;27.70;59.70;;;;;;5051238;28;20272;-72
2023/01/13 04:41:23;;;;;;;9.20;1.43;;;27.80;59.80;;;;;;5052264;28;20176;-72
2023/01/13 04:43:50;;;;;;;5.10;1.47;;;27.80;59.50;;;;;;5050442;28;20279;-72
2023/01/13 04:46:17;;;;;;;7.23;1.60;;;27.80;59.10;;;;;;5052527;28;20241;-72
2023/01/13 04:48:45;;;;;;;5.37;1.47;;;27.70;59.30;;;;;;5048543;28;20194;-71
2023/01/13 04:51:12;;;;;;;6.13;1.57;;;27.80;58.70;;;;;;5048176;28;20716;-71
2023/01/13 04:53:39;;;;;;;3.83;1.40;;;27.80;59.00;;;;;;5046055;28;20180;-72
2023/01/13 04:56:07;;;;;;;9.73;1.60;;;27.70;58.80;;;;;;5049409;28;20224;-70
2023/01/13 04:58:34;;;;;;;4.90;1.60;;;27.60;59.50;;;;;;5050746;28;20188;-73
2023/01/13 05:01:01;;;;;;;5.67;1.40;;;27.60;59.20;;;;;;5051369;28;20195;-73
2023/01/13 05:03:29;;;;;;;6.37;1.50;;;28.00;58.20;;;;;;5054606;28;20351;-74
2023/01/13 05:05:56;;;;;;;6.03;1.40;;;28.30;57.60;;;;;;5055935;28;20191;-71
2023/01/13 05:08:23;;;;;;;4.93;1.30;;;28.30;57.30;;;;;;5054612;28;20179;-74
2023/01/13 05:10:51;;;;;;;2.70;1.17;;;27.90;57.80;;;;;;5055045;28;20263;-73
2023/01/13 05:18:49;;;;;;;3.73;1.40;;;27.80;59.20;;;;;;5054458;28;20191;-70
2023/01/13 05:26:47;;;;;;;5.47;1.20;;;28.80;57.30;;;;;;5049741;28;20210;-72
2023/01/13 05:29:14;;;;;;;7.93;1.50;;;29.00;57.20;;;;;;5054912;28;20191;-72
2023/01/13 05:31:41;;;;;;;6.20;1.20;;;29.30;56.60;;;;;;5053347;28;20183;-71
2023/01/13 05:34:09;;;;;;;7.50;1.42;;;29.90;55.20;;;;;;5055029;28;20180;-74
2023/01/13 05:36:36;;;;;;;4.40;1.20;;;29.30;56.00;;;;;;5053849;28;20195;-71
2023/01/13 05:39:04;;;;;;;5.73;1.27;;;29.50;56.10;;;;;;5053680;28;20184;-71
2023/01/13 05:44:16;;;;;;;5.88;1.40;;;30.00;54.70;;;;;;5054594;28;20214;-72
2023/01/13 05:46:43;;;;;;;10.25;1.75;;;30.30;53.80;;;;;;5053532;28;20184;-72
2023/01/13 05:49:11;;;;;;;6.03;1.60;;;30.00;54.10;;;;;;5054206;28;20195;-72
2023/01/13 05:51:38;;;;;;;7.83;1.47;;;29.10;56.40;;;;;;5054262;28;20239;-71
2023/01/13 05:54:05;;;;;;;7.40;1.30;;;28.70;57.40;;;;;;5053581;28;20262;-70
2023/01/13 05:56:33;;;;;;;3.60;1.43;;;28.50;57.50;;;;;;5053363;28;20183;-72
2023/01/13 05:59:01;;;;;;;5.03;1.67;;;27.90;59.70;;;;;;5053213;28;20184;-71
2023/01/13 06:01:28;;;;;;;4.57;1.40;;;27.50;61.10;;;;;;5052986;28;20184;-71
2023/01/13 06:03:55;;;;;;;3.10;1.20;;;27.40;62.20;;;;;;5054463;28;20845;-72
2023/01/13 06:06:23;;;;;;;5.47;1.67;;;27.00;62.70;;;;;;5054535;28;20172;-72
2023/01/13 06:08:50;;;;;;;6.37;1.70;;;26.70;63.90;;;;;;5053325;28;20227;-71
2023/01/13 06:11:17;;;;;;;6.63;1.90;;;26.60;64.50;;;;;;5052905;28;20597;-72
2023/01/13 06:13:45;;;;;;;7.27;2.03;;;26.40;65.10;;;;;;5051960;28;20190;-72
2023/01/13 06:16:12;;;;;;;4.97;1.80;;;26.40;64.70;;;;;;5054371;28;20218;-71
2023/01/13 06:18:39;;;;;;;7.90;1.80;;;26.30;65.30;;;;;;5054606;28;20277;-71
2023/01/13 06:21:06;;;;;;;4.93;1.40;;;26.30;65.70;;;;;;5053392;28;20214;-73
2023/01/13 06:23:37;;;;;;;5.57;1.70;;;26.30;65.40;;;;;;5054404;28;20258;-74
2023/01/13 06:26:20;;;;;;;4.53;1.50;;;26.40;65.10;;;;;;5054099;28;20202;-73
2023/01/13 06:28:48;;;;;;;10.70;2.00;;;26.30;65.30;;;;;;5054691;28;20180;-72
2023/01/13 06:31:16;;;;;;;6.70;1.63;;;26.40;65.40;;;;;;5053914;28;20574;-70
2023/01/13 06:33:52;;;;;;;4.70;1.20;;;26.30;65.20;;;;;;5054302;28;20221;-70
2023/01/13 06:36:27;;;;;;;9.60;1.33;;;26.30;65.10;;;;;;5053808;28;20637;-72
2023/01/13 06:38:58;;;;;;;6.70;1.37;;;26.30;65.20;;;;;;5053860;28;20176;-73
2023/01/13 06:44:13;;;;;;;7.63;1.73;;;26.90;63.70;;;;;;5053841;28;20271;-73
2023/01/13 06:46:41;;;;;;;6.77;1.57;;;27.20;63.00;;;;;;5053736;28;20259;-71
2023/01/13 06:49:09;;;;;;;8.27;1.63;;;27.20;62.60;;;;;;5053898;28;20191;-72
2023/01/13 06:51:36;;;;;;;5.37;1.20;;;27.20;62.00;;;;;;5053896;28;20220;-71
2023/01/13 06:54:04;;;;;;;8.90;2.20;;;27.10;62.00;;;;;;5053634;28;20226;-71
2023/01/13 06:56:32;;;;;;;5.53;1.20;;;27.10;62.30;;;;;;5053700;28;20572;-74
2023/01/13 06:58:59;;;;;;;5.70;1.33;;;27.20;62.30;;;;;;5053521;28;20688;-73
2023/01/13 07:01:26;;;;;;;5.73;1.30;;;27.70;61.40;;;;;;5053599;28;20665;-73
2023/01/13 07:03:53;;;;;;;3.77;1.30;;;28.00;60.20;;;;;;5053866;28;20183;-72
2023/01/13 07:06:21;;;;;;;9.00;1.70;;;28.30;60.10;;;;;;5053731;28;20278;-72
2023/01/13 07:08:48;;;;;;;4.70;1.30;;;28.20;60.20;;;;;;5053367;28;20183;-72
2023/01/13 07:11:15;;;;;;;6.37;1.30;;;27.90;61.10;;;;;;5051912;28;20426;-73
2023/01/13 07:16:28;;;;;;;5.33;1.63;;;26.50;64.40;;;;;;5050268;28;20622;-72
2023/01/13 07:18:55;;;;;;;5.37;1.37;;;26.20;65.90;;;;;;5053484;28;20180;-74
2023/01/13 07:21:23;;;;;;;5.07;1.33;;;25.70;67.10;;;;;;5047461;28;20179;-74
2023/01/13 07:23:50;;;;;;;4.93;1.67;;;25.60;67.80;;;;;;5055843;28;20187;-74
2023/01/13 07:26:17;;;;;;;8.13;1.90;;;25.50;68.60;;;;;;5049576;28;20546;-71
2023/01/13 07:28:45;;;;;;;5.83;1.60;;;25.50;68.90;;;;;;5053407;28;20241;-72
2023/01/13 07:31:19;;;;;;;7.10;1.73;;;25.30;69.00;;;;;;5051892;28;20184;-70
2023/01/13 07:33:47;;;;;;;8.40;1.57;;;25.10;69.40;;;;;;5045708;28;20187;-74
2023/01/13 07:36:15;;;;;;;8.67;1.70;;;25.00;69.30;;;;;;5051057;28;20685;-70
2023/01/13 07:38:43;;;;;;;6.63;1.60;;;25.00;69.60;;;;;;5052956;28;20517;-72
2023/01/13 07:43:59;;;;;;;7.37;1.80;;;25.20;69.30;;;;;;5048758;28;20191;-71
2023/01/13 07:46:26;;;;;;;10.70;1.97;;;25.10;69.50;;;;;;5052866;28;20188;-71
2023/01/13 07:48:54;;;;;;;6.60;1.73;;;25.10;69.40;;;;;;5052848;28;20267;-72
2023/01/13 07:51:21;;;;;;;10.30;2.40;;;24.80;70.00;;;;;;5052212;28;20320;-73
2023/01/13 07:53:48;;;;;;;7.87;2.20;;;24.80;70.60;;;;;;5052572;28;20257;-76
2023/01/13 07:56:16;;;;;;;6.30;1.77;;;24.90;70.40;;;;;;5052320;28;20223;-74
2023/01/13 07:58:49;;;;;;;8.13;2.07;;;24.90;69.60;;;;;;5052793;28;20189;-72
2023/01/13 08:01:17;;;;;;;5.63;1.80;;;24.70;70.40;;;;;;5052183;28;20172;-72
2023/01/13 08:03:45;;;;;;;6.53;1.47;;;24.70;70.00;;;;;;5052739;28;20225;-72
2023/01/13 08:06:13;;;;;;;10.27;2.57;;;24.60;69.90;;;;;;5052427;28;20183;-73
2023/01/13 08:08:41;;;;;;;5.87;1.90;;;24.60;70.30;;;;;;5052136;28;20559;-74
2023/01/13 08:11:08;;;;;;;7.03;2.03;;;24.60;71.00;;;;;;5052358;28;20643;-72
2023/01/13 08:13:36;;;;;;;6.83;2.03;;;24.70;70.70;;;;;;5052338;28;20283;-74
2023/01/13 08:16:06;;;;;;;9.07;1.90;;;24.60;70.80;;;;;;5052323;28;20685;-72
2023/01/13 08:18:36;;;;;;;9.00;2.30;;;24.60;71.10;;;;;;5052338;28;20172;-72
2023/01/13 08:21:13;;;;;;;5.13;2.03;;;24.60;71.30;;;;;;5052402;28;20175;-74
2023/01/13 08:23:42;;;;;;;12.50;2.20;;;24.60;71.40;;;;;;5052357;28;20541;-72
2023/01/13 08:26:11;;;;;;;9.33;1.90;;;24.50;71.50;;;;;;5052007;28;20187;-71
2023/01/13 08:28:39;;;;;;;8.73;1.80;;;24.50;71.60;;;;;;5052152;28;20188;-71
2023/01/13 08:31:12;;;;;;;10.83;2.13;;;24.40;71.70;;;;;;5052315;28;20179;-73
2023/01/13 08:33:41;;;;;;;9.13;2.00;;;24.30;72.20;;;;;;5052431;28;20184;-71
2023/01/13 08:36:11;;;;;;;6.40;1.67;;;24.30;72.60;;;;;;5048951;28;20561;-72
2023/01/13 08:38:38;;;;;;;7.90;2.70;;;24.20;72.60;;;;;;5051925;28;20686;-71
2023/01/13 08:41:11;;;;;;;5.60;2.03;;;24.20;72.70;;;;;;5051760;28;20543;-71
2023/01/13 08:43:39;;;;;;;9.27;2.00;;;24.20;72.60;;;;;;5052122;28;20168;-72
2023/01/13 08:46:06;;;;;;;9.43;1.90;;;24.10;72.60;;;;;;5051958;28;20195;-72
2023/01/13 08:48:34;;;;;;;14.07;2.20;;;24.00;72.60;;;;;;5050957;28;20646;-71
2023/01/13 08:51:06;;;;;;;13.17;2.00;;;24.00;72.70;;;;;;5051813;28;20242;-72
2023/01/13 08:53:34;;;;;;;9.93;2.20;;;24.00;72.80;;;;;;5050637;28;20179;-72
2023/01/13 08:56:01;;;;;;;33.87;3.40;;;24.00;73.00;;;;;;5050300;28;20246;-73
2023/01/13 08:58:29;;;;;;;8.63;2.40;;;24.00;72.90;;;;;;5051580;28;20255;-71
2023/01/13 09:00:56;;;;;;;11.07;2.47;;;23.90;73.40;;;;;;5051042;28;21445;-72
2023/01/13 09:03:24;;;;;;;7.03;1.73;;;23.90;73.40;;;;;;5050532;28;20682;-71
2023/01/13 09:05:51;;;;;;;7.07;1.57;;;23.80;73.60;;;;;;5051188;28;20178;-72
2023/01/13 09:08:19;;;;;;;10.53;2.13;;;23.80;73.80;;;;;;5051593;28;20265;-73
2023/01/13 09:10:46;;;;;;;8.40;2.23;;;23.70;73.80;;;;;;5051520;28;20554;-73
2023/01/13 09:13:14;;;;;;;8.20;1.93;;;23.70;74.00;;;;;;5051511;28;20547;-72
2023/01/13 09:15:44;;;;;;;9.63;2.30;;;23.80;74.20;;;;;;5051343;28;20211;-73
2023/01/13 09:18:12;;;;;;;12.53;2.33;;;23.70;75.10;;;;;;5051584;28;20176;-73
2023/01/13 09:20:40;;;;;;;13.17;2.33;;;23.70;75.50;;;;;;5051972;28;20184;-72
2023/01/13 09:23:08;;;;;;;8.30;2.13;;;23.70;75.90;;;;;;5040448;28;20255;-75
2023/01/13 09:25:35;;;;;;;12.67;2.30;;;23.70;76.00;;;;;;5051181;28;20188;-72
2023/01/13 09:28:03;;;;;;;8.30;2.40;;;23.70;76.40;;;;;;5047669;28;20187;-73
2023/01/13 09:30:31;;;;;;;9.30;2.10;;;23.50;76.00;;;;;;5051410;28;20192;-71
2023/01/13 09:35:44;;;;;;;14.83;2.13;;;23.50;76.20;;;;;;5047071;28;20222;-73
2023/01/13 09:38:12;;;;;;;10.53;2.40;;;23.50;76.30;;;;;;5050586;28;20184;-74
2023/01/13 09:40:42;;;;;;;8.03;1.73;;;23.50;76.40;;;;;;5050868;28;20180;-71
2023/01/13 09:46:45;;;;;;;11.37;2.13;;;23.40;76.20;;;;;;5049005;28;20750;-73
2023/01/13 09:49:51;;;;;;;13.40;2.40;;;23.40;76.40;;;;;;5054970;28;20180;-75
2023/01/13 09:52:24;;;;;;;13.17;2.27;;;23.40;77.10;;;;;;5031270;28;20192;-73
2023/01/13 09:54:52;;;;;;;13.63;2.23;;;23.40;77.10;;;;;;5032484;28;20209;-73
2023/01/13 09:57:20;;;;;;;8.30;1.67;;;23.40;77.30;;;;;;5044402;28;20257;-72
2023/01/13 09:59:48;;;;;;;11.70;1.90;;;23.30;77.20;;;;;;5054649;28;20177;-72
2023/01/13 10:02:45;;;;;;;9.37;1.93;;;23.30;77.20;;;;;;5047542;28;20176;-75
2023/01/13 10:05:31;;;;;;;6.80;1.77;;;23.30;77.00;;;;;;5052808;28;20626;-72
2023/01/13 10:08:08;;;;;;;12.57;2.43;;;23.30;77.00;;;;;;5054066;28;20188;-71
2023/01/13 10:10:49;;;;;;;10.40;2.20;;;23.30;77.00;;;;;;5046731;28;20175;-75
2023/01/13 10:13:24;;;;;;;8.73;1.77;;;23.30;76.70;;;;;;5053373;28;20183;-72
2023/01/13 10:16:27;;;;;;;8.17;1.73;;;23.30;76.80;;;;;;5054616;28;20219;-71
2023/01/13 10:19:05;;;;;;;6.10;1.77;;;23.30;76.70;;;;;;5052684;28;20668;-73
2023/01/13 10:21:35;;;;;;;6.60;1.77;;;23.20;76.50;;;;;;5053776;28;20317;-75
2023/01/13 10:24:30;;;;;;;7.00;2.00;;;23.20;76.30;;;;;;5054293;28;20184;-70
2023/01/13 10:27:35;;;;;;;8.83;2.10;;;23.20;76.40;;;;;;5052004;28;20283;-74
2023/01/13 10:30:18;;;;;;;6.97;1.47;;;23.20;76.60;;;;;;5053785;28;20272;-73
2023/01/13 10:33:13;;;;;;;11.20;2.03;;;23.20;77.00;;;;;;5054223;28;20237;-75
2023/01/13 10:35:50;;;;;;;8.30;2.10;;;23.20;77.30;;;;;;5047455;28;20212;-77
2023/01/13 10:38:26;;;;;;;6.03;1.80;;;23.10;77.30;;;;;;5053943;28;20492;-73
2023/01/13 10:40:56;;;;;;;14.27;2.40;;;23.10;77.30;;;;;;5052352;28;20185;-74
2023/01/13 10:43:25;;;;;;;10.20;2.00;;;23.10;77.30;;;;;;5052462;28;20219;-75
2023/01/13 10:46:05;;;;;;;12.50;2.10;;;23.10;77.50;;;;;;5053829;28;20180;-74
2023/01/13 10:48:54;;;;;;;12.07;2.03;;;23.10;77.50;;;;;;5050484;28;20180;-74
2023/01/13 10:51:37;;;;;;;10.53;2.20;;;23.10;77.80;;;;;;5052404;28;20227;-72
2023/01/13 10:54:21;;;;;;;6.03;2.27;;;23.00;77.90;;;;;;5053796;28;20545;-76
2023/01/13 10:57:09;;;;;;;12.30;1.90;;;23.00;77.90;;;;;;5053149;28;20179;-73
2023/01/13 10:59:36;;;;;;;8.93;1.97;;;23.00;77.80;;;;;;5082044;28;20184;-73
2023/01/13 11:02:16;;;;;;;8.97;2.10;;;23.00;77.60;;;;;;5053722;28;20605;-73
2023/01/13 11:05:30;;;;;;;10.50;1.70;;;23.00;77.70;;;;;;5053601;28;20211;-73
2023/01/13 11:07:57;;;;;;;9.73;1.87;;;23.00;78.10;;;;;;5024407;28;20226;-72
2023/01/13 11:10:28;;;;;;;10.47;2.20;;;22.90;78.30;;;;;;5052617;28;20184;-73
2023/01/13 11:13:13;;;;;;;12.17;1.80;;;23.00;78.30;;;;;;5053315;28;20234;-73
2023/01/13 11:16:04;;;;;;;12.30;2.20;;;22.90;78.20;;;;;;5056019;28;20285;-74
2023/01/13 11:18:42;;;;;;;9.57;1.90;;;22.90;78.30;;;;;;5054284;28;20180;-72
2023/01/13 11:21:38;;;;;;;8.67;1.90;;;22.90;78.60;;;;;;5056711;28;20193;-73
2023/01/13 11:24:25;;;;;;;7.27;1.67;;;22.90;78.00;;;;;;5060693;28;20171;-75
2023/01/13 11:27:01;;;;;;;10.10;2.17;;;22.90;77.90;;;;;;5052134;28;20226;-74
2023/01/13 11:30:08;;;;;;;10.53;2.20;;;22.90;77.80;;;;;;5039235;28;20169;-74
2023/01/13 11:33:08;;;;;;;9.63;1.83;;;22.90;77.70;;;;;;5035590;28;20191;-72
2023/01/13 11:35:43;;;;;;;10.63;2.20;;;22.90;77.70;;;;;;5059778;28;20211;-76
2023/01/13 11:38:35;;;;;;;8.27;2.30;;;22.90;77.70;;;;;;5056872;28;20171;-71
2023/01/13 11:41:35;;;;;;;12.70;2.07;;;22.90;78.10;;;;;;5056512;28;20187;-72
2023/01/13 11:44:22;;;;;;;8.43;2.50;;;22.90;78.30;;;;;;5054177;28;20187;-77
2023/01/13 11:46:52;;;;;;;11.23;2.33;;;22.90;78.30;;;;;;5059752;28;20195;-75
2023/01/13 11:49:32;;;;;;;11.23;2.40;;;22.90;78.50;;;;;;5053030;28;20182;-77
2023/01/13 11:52:32;;;;;;;12.30;2.30;;;22.90;78.60;;;;;;5052524;28;20226;-75
2023/01/13 11:55:15;;;;;;;10.07;1.90;;;22.80;78.70;;;;;;5043151;28;20270;-74
2023/01/13 11:57:56;;;;;;;8.53;1.90;;;22.80;78.90;;;;;;5047734;28;20188;-75
2023/01/13 12:00:51;;;;;;;10.93;2.43;;;22.80;78.80;;;;;;5052102;28;20266;-73
2023/01/13 12:03:42;;;;;;;11.47;2.10;;;22.80;78.90;;;;;;5052278;28;20290;-73
2023/01/13 12:06:44;;;;;;;10.63;2.60;;;22.80;78.80;;;;;;5047251;28;20223;-75
2023/01/13 12:09:30;;;;;;;10.63;2.03;;;22.80;78.90;;;;;;5046751;28;20208;-75
2023/01/13 12:15:01;;;;;;;13.07;2.50;;;22.70;79.00;;;;;;5048908;28;20234;-74
2023/01/13 12:17:47;;;;;;;8.23;2.10;;;22.80;79.00;;;;;;5055324;28;20576;-75
2023/01/13 12:20:39;;;;;;;11.63;2.20;;;22.70;78.80;;;;;;5063342;28;20183;-74
2023/01/13 12:23:17;;;;;;;8.07;2.00;;;22.70;78.40;;;;;;5053073;28;20184;-73
2023/01/13 12:25:51;;;;;;;8.10;2.00;;;22.80;78.50;;;;;;5053050;28;20176;-75
2023/01/13 12:28:42;;;;;;;9.33;2.30;;;22.70;78.20;;;;;;5057068;28;20175;-72
2023/01/13 12:31:10;;;;;;;10.20;2.23;;;22.70;78.40;;;;;;5049951;28;20184;-73
2023/01/13 12:33:44;;;;;;;11.30;1.83;;;22.70;77.30;;;;;;5056269;28;20183;-76
2023/01/13 12:36:29;;;;;;;13.57;2.20;;;22.70;77.40;;;;;;5044994;28;20204;-73
2023/01/13 12:39:17;;;;;;;8.27;1.60;;;22.70;77.40;;;;;;5054904;28;20192;-72
2023/01/13 12:44:41;;;;;;;20.17;2.50;;;22.60;77.40;;;;;;5054118;28;20656;-73
2023/01/13 12:47:35;;;;;;;9.03;1.63;;;22.60;77.30;;;;;;5059751;28;20638;-75
2023/01/13 12:50:24;;;;;;;11.60;2.17;;;22.60;77.30;;;;;;5051982;28;20271;-74
2023/01/13 12:52:52;;;;;;;11.80;2.53;;;22.60;77.00;;;;;;5053131;28;20639;-73
2023/01/13 12:55:26;;;;;;;10.13;1.93;;;22.70;76.70;;;;;;5052968;28;20222;-74
2023/01/13 12:58:06;;;;;;;8.27;1.80;;;22.60;77.00;;;;;;5052308;28;20208;-75
2023/01/13 13:00:57;;;;;;;8.00;1.90;;;22.60;77.20;;;;;;5057481;28;20266;-75
2023/01/13 13:03:31;;;;;;;10.97;2.77;;;22.60;77.30;;;;;;5054285;28;20178;-75
2023/01/13 13:06:18;;;;;;;11.03;2.17;;;22.60;77.70;;;;;;5042868;28;20180;-74
2023/01/13 13:09:03;;;;;;;10.83;2.03;;;22.60;78.20;;;;;;5052705;28;20184;-75
2023/01/13 13:14:42;;;;;;;10.30;2.60;;;22.60;79.10;;;;;;5045948;28;20677;-75
2023/01/13 13:17:27;;;;;;;9.77;2.50;;;22.60;79.50;;;;;;5053248;28;20196;-73
2023/01/13 13:20:00;;;;;;;10.53;2.50;;;22.60;79.70;;;;;;5055519;28;20612;-71
2023/01/13 13:22:27;;;;;;;12.97;2.47;;;22.60;80.00;;;;;;5054446;28;20183;-72
2023/01/13 13:25:03;;;;;;;14.47;2.60;;;22.50;80.10;;;;;;5057613;28;20172;-73
2023/01/13 13:27:50;;;;;;;14.00;2.40;;;22.50;80.20;;;;;;5060889;28;20187;-73
2023/01/13 13:30:30;;;;;;;12.77;2.50;;;22.60;80.30;;;;;;5052122;28;20180;-71
2023/01/13 13:33:15;;;;;;;16.07;2.73;;;22.60;80.20;;;;;;5066092;28;20194;-71
2023/01/13 13:36:18;;;;;;;11.27;2.70;;;22.50;80.20;;;;;;5054351;28;20203;-72
2023/01/13 13:47:42;;;;;;;9.03;2.27;;;22.50;79.90;;;;;;5054063;28;20183;-72
2023/01/13 13:50:19;;;;;;;11.97;2.80;;;22.50;79.90;;;;;;5055135;28;20290;-71
2023/01/13 13:53:07;;;;;;;19.30;2.07;;;22.50;79.70;;;;;;5047702;28;20179;-71
2023/01/13 13:55:37;;;;;;;11.77;2.43;;;22.50;79.40;;;;;;5051356;28;20552;-70
2023/01/13 13:58:05;;;;;;;16.10;2.73;;;22.50;79.40;;;;;;5054987;28;20168;-72
2023/01/13 14:00:37;;;;;;;12.33;2.27;;;22.50;79.60;;;;;;5054087;28;20176;-73
2023/01/13 14:03:07;;;;;;;11.20;1.80;;;22.50;79.70;;;;;;5054898;28;20222;-72
2023/01/13 14:05:36;;;;;;;10.90;2.77;;;22.40;79.80;;;;;;5053288;28;20257;-71
2023/01/13 14:08:17;;;;;;;14.60;2.40;;;22.30;79.90;;;;;;5053617;28;20180;-72
2023/01/13 14:10:45;;;;;;;10.00;2.37;;;22.30;80.10;;;;;;5051219;28;20532;-73
2023/01/13 14:13:21;;;;;;;10.97;1.90;;;22.30;80.30;;;;;;5053735;28;20184;-72
2023/01/13 14:16:00;;;;;;;6.90;2.37;;;22.30;80.20;;;;;;5054918;28;20214;-72
2023/01/13 14:18:32;;;;;;;7.33;1.80;;;22.30;80.30;;;;;;5054830;28;20183;-74